D. Carlos I — CTHJ — position and weather

sailwx.info

Track history (hours):
 
Tides and Currents Weather Stations Pressure Air Temp Water Temp Dewpoint Dewpoint Depression Visibility Wind Speed Wind Dir Waves Ship Positions

Oceanographic research ship D. Carlos I (Portugal)

Detailed information on ship capabilities available from University of Delaware's Ocean Information Center.

Last reported at 2019-Feb-12 17:46 UTC. Time now 2019-Feb-17 15:58 UTC.
Position N 38°40' W 009°09'.

Length 69 m; draft 5.6 m.

MMSI: 263144000.

Date/timePositionNaut miles runAvg speedWind from/ knotsBaromVisibWave heightAir tempDewpointWater temp
2019-Feb-12 17:46N 38°40' W 009°09'0 0.2
2019-Feb-12 17:30N 38°40' W 009°09'2 3.4
2019-Feb-12 17:00N 38°42' W 009°08'5 9.4
2019-Feb-12 16:29N 38°41' W 009°14'5 9.6
2019-Feb-12 16:01N 38°39' W 009°20'4 7.2
2019-Feb-12 15:30N 38°36' W 009°22'3 5.2
2019-Feb-12 15:01N 38°35' W 009°19'1 1.0
2019-Feb-12 14:28N 38°35' W 009°20'0 0.7
2019-Feb-12 14:01N 38°35' W 009°20'0 0.4
2019-Feb-12 13:30N 38°35' W 009°20'1 1.4
2019-Feb-12 12:59N 38°34' W 009°19'1 1.6
2019-Feb-12 12:31N 38°35' W 009°19'0 0.9
2019-Feb-12 12:00N 38°35' W 009°18'1 1.2
2019-Feb-12 11:30N 38°35' W 009°17'1 1.4
2019-Feb-12 11:01N 38°34' W 009°18'1 2.3
2019-Feb-12 10:30N 38°34' W 009°19'3 5.5
2019-Feb-12 09:59N 38°36' W 009°21'3 6.8
2019-Feb-12 09:30N 38°39' W 009°20'5 9.8
2019-Feb-12 09:00N 38°41' W 009°14'5 9.3
2019-Feb-12 08:30N 38°42' W 009°08'2 2.8
2019-Feb-12 07:53N 38°40' W 009°09'0 0.0
2019-Feb-12 07:26N 38°40' W 009°09'  
2019-Feb-06 10:21N 38°40' W 009°09'0 0.1
2019-Feb-06 10:00N 38°40' W 009°09'2 3.1
2019-Feb-06 09:30N 38°42' W 009°09'3 6.8
2019-Feb-06 09:00N 38°41' W 009°13'3 6.3
2019-Feb-06 08:30N 38°41' W 009°17'3 6.3
2019-Feb-06 08:01N 38°39' W 009°20'  
2019-Feb-04 01:13N 38°29' W 009°21'1 6.3
2019-Feb-04 01:00N 38°30' W 009°22'3 7.0
2019-Feb-04 00:30N 38°33' W 009°24'3 5.8
2019-Feb-04 00:00N 38°36' W 009°24'5 9.4
2019-Feb-03 23:30N 38°39' W 009°20'4 7.2
2019-Feb-03 23:01N 38°41' W 009°16'4 8.4
2019-Feb-03 22:30N 38°42' W 009°10'2 3.8
2019-Feb-03 22:00N 38°40' W 009°09'0 0.5
2019-Feb-03 21:28N 38°40' W 009°09'0 0.0
2019-Feb-03 20:52N 38°40' W 009°09'  
Track history (hours):
 
Tides and Currents Weather Stations Pressure Air Temp Water Temp Dewpoint Dewpoint Depression Visibility Wind Speed Wind Dir Waves Ship Positions

Oceanographic research ship D. Carlos I (Portugal)

Detailed information on ship capabilities available from University of Delaware's Ocean Information Center.

Last reported at 2019-Feb-12 17:46 UTC. Time now 2019-Feb-17 15:58 UTC.
Position N 38°40' W 009°09'.

Length 69 m; draft 5.6 m.

MMSI: 263144000.

Date/timePositionNaut miles runAvg speedWind from/ knotsBaromVisibWave heightAir tempDewpointWater temp
2019-Feb-12 17:46N 38°40' W 009°09'0 0.2
2019-Feb-12 17:30N 38°40' W 009°09'2 3.4
2019-Feb-12 17:00N 38°42' W 009°08'5 9.4
2019-Feb-12 16:29N 38°41' W 009°14'5 9.6
2019-Feb-12 16:01N 38°39' W 009°20'4 7.2
2019-Feb-12 15:30N 38°36' W 009°22'3 5.2
2019-Feb-12 15:01N 38°35' W 009°19'1 1.0
2019-Feb-12 14:28N 38°35' W 009°20'0 0.7
2019-Feb-12 14:01N 38°35' W 009°20'0 0.4
2019-Feb-12 13:30N 38°35' W 009°20'1 1.4
2019-Feb-12 12:59N 38°34' W 009°19'1 1.6
2019-Feb-12 12:31N 38°35' W 009°19'0 0.9
2019-Feb-12 12:00N 38°35' W 009°18'1 1.2
2019-Feb-12 11:30N 38°35' W 009°17'1 1.4
2019-Feb-12 11:01N 38°34' W 009°18'1 2.3
2019-Feb-12 10:30N 38°34' W 009°19'3 5.5
2019-Feb-12 09:59N 38°36' W 009°21'3 6.8
2019-Feb-12 09:30N 38°39' W 009°20'5 9.8
2019-Feb-12 09:00N 38°41' W 009°14'5 9.3
2019-Feb-12 08:30N 38°42' W 009°08'2 2.8
2019-Feb-12 07:53N 38°40' W 009°09'0 0.0
2019-Feb-12 07:26N 38°40' W 009°09'  
2019-Feb-06 10:21N 38°40' W 009°09'0 0.1
2019-Feb-06 10:00N 38°40' W 009°09'2 3.1
2019-Feb-06 09:30N 38°42' W 009°09'3 6.8
2019-Feb-06 09:00N 38°41' W 009°13'3 6.3
2019-Feb-06 08:30N 38°41' W 009°17'3 6.3
2019-Feb-06 08:01N 38°39' W 009°20'  
2019-Feb-04 01:13N 38°29' W 009°21'1 6.3
2019-Feb-04 01:00N 38°30' W 009°22'3 7.0
2019-Feb-04 00:30N 38°33' W 009°24'3 5.8
2019-Feb-04 00:00N 38°36' W 009°24'5 9.4
2019-Feb-03 23:30N 38°39' W 009°20'4 7.2
2019-Feb-03 23:01N 38°41' W 009°16'4 8.4
2019-Feb-03 22:30N 38°42' W 009°10'2 3.8
2019-Feb-03 22:00N 38°40' W 009°09'0 0.5
2019-Feb-03 21:28N 38°40' W 009°09'0 0.0
2019-Feb-03 20:52N 38°40' W 009°09'  

Dump ship's entire track history